createdAt,value
2023-01-22T00:01:21.047Z,106.13
2023-01-22T00:03:49.673Z,116.28
2023-01-22T00:06:17.424Z,112.22
2023-01-22T00:08:46.646Z,109.22
2023-01-22T00:11:15.840Z,98.82
2023-01-22T00:16:16.624Z,106.50
2023-01-22T00:18:44.630Z,106.00
2023-01-22T00:21:13.557Z,95.15
2023-01-22T00:23:41.655Z,89.90
2023-01-22T00:26:15.729Z,97.32
2023-01-22T00:28:45.809Z,98.05
2023-01-22T00:31:16.093Z,105.40
2023-01-22T00:33:45.512Z,97.85
2023-01-22T00:36:19.135Z,103.78
2023-01-22T00:38:50.412Z,95.03
2023-01-22T00:41:20.225Z,108.60
2023-01-22T00:43:50.028Z,110.55
2023-01-22T00:46:18.884Z,109.68
2023-01-22T00:48:49.475Z,103.97
2023-01-22T00:51:17.566Z,101.53
2023-01-22T00:53:45.950Z,92.83
2023-01-22T00:56:15.277Z,102.88
2023-01-22T00:58:43.732Z,93.80
2023-01-22T01:01:14.699Z,83.03
2023-01-22T01:03:43.156Z,89.68
2023-01-22T01:06:19.778Z,72.00
2023-01-22T01:08:49.364Z,97.15
2023-01-22T01:11:23.144Z,87.57
2023-01-22T01:13:52.837Z,94.35
2023-01-22T01:16:26.815Z,95.28
2023-01-22T01:19:05.515Z,98.03
2023-01-22T01:21:35.141Z,106.28
2023-01-22T01:24:03.840Z,100.35
2023-01-22T01:26:33.505Z,98.70
2023-01-22T01:29:04.882Z,107.53
2023-01-22T01:31:32.851Z,99.72
2023-01-22T01:34:01.152Z,88.78
2023-01-22T01:36:47.739Z,90.07
2023-01-22T01:39:16.798Z,88.60
2023-01-22T01:41:44.773Z,96.95
2023-01-22T01:44:19.706Z,90.72
2023-01-22T01:47:28.414Z,97.47
2023-01-22T01:49:56.397Z,92.65
2023-01-22T01:52:24.660Z,90.03
2023-01-22T01:54:56.535Z,89.32
2023-01-22T01:57:29.773Z,100.97
2023-01-22T01:59:59.244Z,95.00
2023-01-22T02:02:27.045Z,68.18
2023-01-22T02:07:24.246Z,87.65
2023-01-22T02:09:52.228Z,92.22
2023-01-22T02:12:19.913Z,93.65
2023-01-22T02:14:50.700Z,90.82
2023-01-22T02:17:22.782Z,92.43
2023-01-22T02:19:52.428Z,94.43
2023-01-22T02:22:23.951Z,93.45
2023-01-22T02:24:51.968Z,90.78
2023-01-22T02:27:19.933Z,90.47
2023-01-22T02:29:49.619Z,89.63
2023-01-22T02:32:18.164Z,81.88
2023-01-22T02:34:46.747Z,81.45
2023-01-22T02:37:14.477Z,82.80
2023-01-22T02:39:43.065Z,87.05
2023-01-22T02:42:11.130Z,82.05
2023-01-22T02:44:42.178Z,78.75
2023-01-22T02:47:10.348Z,77.45
2023-01-22T02:49:38.525Z,84.18
2023-01-22T02:52:06.826Z,73.95
2023-01-22T02:54:35.839Z,79.05
2023-01-22T02:57:03.690Z,80.25
2023-01-22T02:59:31.627Z,81.22
2023-01-22T03:01:59.806Z,79.90
2023-01-22T03:04:29.325Z,83.78
2023-01-22T03:06:57.253Z,77.70
2023-01-22T03:09:28.556Z,83.55
2023-01-22T03:11:56.598Z,80.57
2023-01-22T03:14:47.707Z,83.85
2023-01-22T03:17:36.141Z,78.20
2023-01-22T03:20:23.846Z,88.85
2023-01-22T03:22:51.467Z,80.07
2023-01-22T03:25:20.700Z,83.05
2023-01-22T03:28:07.822Z,84.10
2023-01-22T03:30:36.834Z,76.13
2023-01-22T03:33:04.440Z,82.22
2023-01-22T03:35:32.552Z,78.63
2023-01-22T03:38:14.979Z,77.80
2023-01-22T03:40:43.363Z,74.47
2023-01-22T03:43:11.433Z,70.63
2023-01-22T03:45:39.497Z,70.18
2023-01-22T03:48:11.788Z,67.70
2023-01-22T03:50:41.895Z,65.53
2023-01-22T03:53:09.627Z,78.13
2023-01-22T03:55:37.703Z,69.15
2023-01-22T03:58:05.659Z,69.78
2023-01-22T04:00:33.817Z,70.95
2023-01-22T04:03:04.717Z,71.18
2023-01-22T04:05:38.619Z,70.82
2023-01-22T04:08:06.783Z,72.05
2023-01-22T04:10:36.121Z,74.75
2023-01-22T04:13:04.315Z,69.00
2023-01-22T04:15:32.996Z,60.08
2023-01-22T04:18:05.768Z,60.97
2023-01-22T04:20:48.720Z,59.85
2023-01-22T04:23:33.108Z,59.47
2023-01-22T04:26:02.970Z,56.90
2023-01-22T04:28:31.155Z,59.85
2023-01-22T04:31:00.587Z,58.92
2023-01-22T04:33:51.057Z,57.65
2023-01-22T04:36:28.997Z,52.92
2023-01-22T04:38:57.035Z,52.92
2023-01-22T04:41:25.056Z,54.88
2023-01-22T04:43:53.685Z,62.93
2023-01-22T04:46:24.749Z,51.58
2023-01-22T04:48:53.040Z,53.22
2023-01-22T04:51:20.990Z,59.35
2023-01-22T04:53:48.687Z,56.60
2023-01-22T04:56:18.381Z,55.15
2023-01-22T04:58:46.769Z,55.83
2023-01-22T05:01:15.994Z,60.55
2023-01-22T05:03:44.570Z,59.63
2023-01-22T05:06:12.431Z,56.72
2023-01-22T05:08:40.278Z,67.35
2023-01-22T05:11:09.914Z,59.40
2023-01-22T05:13:49.785Z,56.87
2023-01-22T05:16:18.612Z,62.95
2023-01-22T05:18:46.130Z,55.70
2023-01-22T05:21:14.009Z,52.58
2023-01-22T05:23:41.629Z,49.13
2023-01-22T05:30:16.231Z,48.25
2023-01-22T05:32:58.612Z,54.35
2023-01-22T05:35:28.066Z,49.60
2023-01-22T05:37:57.190Z,52.88
2023-01-22T05:40:25.712Z,47.97
2023-01-22T05:42:54.122Z,45.35
2023-01-22T05:45:22.998Z,49.47
2023-01-22T05:48:20.016Z,46.28
2023-01-22T05:50:56.568Z,47.38
2023-01-22T05:53:24.345Z,46.05
2023-01-22T05:56:19.756Z,48.35
2023-01-22T06:02:39.156Z,49.78
2023-01-22T06:05:35.594Z,57.05
2023-01-22T06:08:07.392Z,48.33
2023-01-22T06:10:42.845Z,39.95
2023-01-22T06:13:10.814Z,37.88
2023-01-22T06:15:39.454Z,36.05
2023-01-22T06:18:30.037Z,47.58
2023-01-22T06:21:03.515Z,47.50
2023-01-22T06:23:31.989Z,41.28
2023-01-22T06:26:28.312Z,38.67
2023-01-22T06:29:09.619Z,33.95
2023-01-22T06:32:28.646Z,35.88
2023-01-22T06:35:55.316Z,32.10
2023-01-22T06:38:24.607Z,37.33
2023-01-22T06:40:54.259Z,31.45
2023-01-22T06:43:24.069Z,31.30
2023-01-22T06:45:52.725Z,27.42
2023-01-22T06:48:24.400Z,28.80
2023-01-22T06:50:52.054Z,33.28
2023-01-22T06:53:19.961Z,29.10
2023-01-22T06:56:09.029Z,29.77
2023-01-22T06:58:46.773Z,39.40
2023-01-22T07:01:49.478Z,32.83
2023-01-22T07:04:20.194Z,34.67
2023-01-22T07:07:00.097Z,32.03
2023-01-22T07:09:28.154Z,28.55
2023-01-22T07:11:57.466Z,29.77
2023-01-22T07:14:36.402Z,25.80
2023-01-22T07:17:05.138Z,28.60
2023-01-22T07:19:33.047Z,31.52
2023-01-22T07:22:00.603Z,22.10
2023-01-22T07:24:31.646Z,25.40
2023-01-22T07:27:21.098Z,24.77
2023-01-22T07:30:30.245Z,26.08
2023-01-22T07:33:23.829Z,20.77
2023-01-22T07:36:12.888Z,21.23
2023-01-22T07:39:08.469Z,22.63
2023-01-22T07:41:36.429Z,21.92
2023-01-22T07:44:12.138Z,21.35
2023-01-22T07:46:40.366Z,21.70
2023-01-22T07:49:07.975Z,22.02
2023-01-22T07:51:36.334Z,20.10
2023-01-22T07:54:04.095Z,23.92
2023-01-22T07:56:31.998Z,22.13
2023-01-22T07:58:59.908Z,24.60
2023-01-22T08:01:27.936Z,30.73
2023-01-22T08:03:57.276Z,23.48
2023-01-22T08:06:25.122Z,23.85
2023-01-22T08:08:52.751Z,32.92
2023-01-22T08:11:20.519Z,26.80
2023-01-22T08:13:48.109Z,30.02
2023-01-22T08:16:15.961Z,28.38
2023-01-22T08:18:43.691Z,30.70
2023-01-22T08:21:11.727Z,26.80
2023-01-22T08:23:39.328Z,50.50
2023-01-22T08:26:07.093Z,32.70
2023-01-22T08:28:34.631Z,28.90
2023-01-22T08:31:03.966Z,29.60
2023-01-22T08:33:49.941Z,25.92
2023-01-22T08:36:17.809Z,18.38
2023-01-22T08:38:45.223Z,20.70
2023-01-22T08:41:13.659Z,20.90
2023-01-22T08:43:41.182Z,18.02
2023-01-22T08:46:09.095Z,19.92
2023-01-22T08:48:36.657Z,38.95
2023-01-22T08:51:04.710Z,35.65
2023-01-22T08:53:32.262Z,24.45
2023-01-22T08:56:01.743Z,28.23
2023-01-22T08:58:29.224Z,24.70
2023-01-22T09:00:57.285Z,27.88
2023-01-22T09:03:25.026Z,29.58
2023-01-22T09:05:52.937Z,31.77
2023-01-22T09:08:21.649Z,27.77
2023-01-22T09:10:49.555Z,30.48
2023-01-22T09:13:17.112Z,29.27
2023-01-22T09:15:44.910Z,33.00
2023-01-22T09:18:12.402Z,32.28
2023-01-22T09:20:40.183Z,35.08
2023-01-22T09:23:07.911Z,43.70
2023-01-22T09:25:35.776Z,39.75
2023-01-22T09:28:07.246Z,34.72
2023-01-22T09:30:36.294Z,41.42
2023-01-22T09:33:03.838Z,40.30
2023-01-22T09:35:31.696Z,43.22
2023-01-22T09:37:59.243Z,41.58
2023-01-22T09:40:44.541Z,39.30
2023-01-22T09:43:45.769Z,46.50
2023-01-22T09:46:25.229Z,48.40
2023-01-22T09:49:02.575Z,47.05
2023-01-22T09:51:30.737Z,51.65
2023-01-22T09:54:01.232Z,46.25
2023-01-22T09:56:59.217Z,47.22
2023-01-22T09:59:47.817Z,51.30
2023-01-22T10:02:31.541Z,48.83
2023-01-22T10:05:39.299Z,42.25
2023-01-22T10:08:23.032Z,42.75
2023-01-22T10:10:52.178Z,40.60
2023-01-22T10:13:34.506Z,41.92
2023-01-22T10:16:03.042Z,38.17
2023-01-22T10:19:12.451Z,40.70
2023-01-22T10:24:22.054Z,42.70
2023-01-22T10:26:55.475Z,41.42
2023-01-22T10:29:34.573Z,40.25
2023-01-22T10:32:15.617Z,40.03
2023-01-22T10:34:43.813Z,37.72
2023-01-22T10:37:18.058Z,34.50
2023-01-22T10:39:50.865Z,33.47
2023-01-22T10:42:23.255Z,36.67
2023-01-22T10:45:09.668Z,34.90
2023-01-22T10:47:37.526Z,33.75
2023-01-22T10:50:15.097Z,45.75
2023-01-22T10:52:50.304Z,46.00
2023-01-22T10:55:25.147Z,38.35
2023-01-22T10:58:07.689Z,46.28
2023-01-22T11:00:51.539Z,37.33
2023-01-22T11:03:28.783Z,42.50
2023-01-22T11:06:21.228Z,40.60
2023-01-22T11:09:07.447Z,43.05
2023-01-22T11:11:47.428Z,44.45
2023-01-22T11:14:35.514Z,38.83
2023-01-22T11:17:29.444Z,47.60
2023-01-22T11:20:11.723Z,47.90
2023-01-22T11:22:43.689Z,42.80
2023-01-22T11:25:12.536Z,45.78
2023-01-22T11:28:12.450Z,43.13
2023-01-22T11:31:09.050Z,41.30
2023-01-22T11:34:18.874Z,47.15
2023-01-22T11:37:11.622Z,42.28
2023-01-22T11:39:47.600Z,42.10
2023-01-22T11:42:45.547Z,49.33
2023-01-22T11:45:47.605Z,46.35
2023-01-22T11:48:48.674Z,45.50
2023-01-22T11:51:39.841Z,44.97
2023-01-22T11:54:23.052Z,44.42
2023-01-22T11:57:25.541Z,38.08
2023-01-22T12:00:43.276Z,39.97
2023-01-22T12:03:51.770Z,45.08
2023-01-22T12:06:43.662Z,39.55
2023-01-22T12:09:17.877Z,48.83
2023-01-22T12:12:22.956Z,44.72
2023-01-22T12:15:19.217Z,43.25
2023-01-22T12:18:01.870Z,47.50
2023-01-22T12:21:07.997Z,59.92
2023-01-22T12:23:57.050Z,42.53
2023-01-22T12:29:39.190Z,41.67
2023-01-22T12:32:11.040Z,36.35
2023-01-22T12:34:50.190Z,40.60
2023-01-22T12:40:30.029Z,43.90
2023-01-22T12:43:07.014Z,47.92
2023-01-22T12:46:12.242Z,50.17
2023-01-22T12:49:10.960Z,45.90
2023-01-22T12:51:49.866Z,49.03
2023-01-22T12:54:36.519Z,51.13
2023-01-22T12:57:26.641Z,48.25
2023-01-22T12:59:58.674Z,50.65
2023-01-22T13:02:35.826Z,58.08
2023-01-22T13:05:33.059Z,54.78
2023-01-22T13:08:20.742Z,50.05
2023-01-22T13:11:06.515Z,54.47
2023-01-22T13:14:14.825Z,56.80
2023-01-22T13:16:59.619Z,48.15
2023-01-22T13:19:36.110Z,57.72
2023-01-22T13:22:04.777Z,49.25
2023-01-22T13:24:33.061Z,48.72
2023-01-22T13:27:03.400Z,54.90
2023-01-22T13:29:37.704Z,54.25
2023-01-22T13:32:17.472Z,57.65
2023-01-22T13:34:45.265Z,58.03
2023-01-22T13:37:27.644Z,60.30
2023-01-22T13:39:55.167Z,59.03
2023-01-22T13:42:27.389Z,65.65
2023-01-22T13:44:56.793Z,81.47
2023-01-22T13:47:34.428Z,69.10
2023-01-22T13:50:03.720Z,93.07
2023-01-22T13:52:33.724Z,72.05
2023-01-22T13:55:06.954Z,80.15
2023-01-22T13:57:34.821Z,73.05
2023-01-22T14:00:05.224Z,79.07
2023-01-22T14:02:36.199Z,67.00
2023-01-22T14:05:04.738Z,67.25
2023-01-22T14:07:38.459Z,67.97
2023-01-22T14:10:24.245Z,69.82
2023-01-22T14:13:06.084Z,66.22
2023-01-22T14:16:13.377Z,62.83
2023-01-22T14:18:50.442Z,61.53
2023-01-22T14:21:18.079Z,66.78
2023-01-22T14:23:48.987Z,70.85
2023-01-22T14:26:16.812Z,64.53
2023-01-22T14:29:03.459Z,61.13
2023-01-22T14:31:31.132Z,64.80
2023-01-22T14:33:58.963Z,70.78
2023-01-22T14:36:26.709Z,72.35
2023-01-22T14:38:55.488Z,66.05
2023-01-22T14:41:23.409Z,72.00
2023-01-22T14:43:51.184Z,64.88
2023-01-22T14:46:18.877Z,71.80
2023-01-22T14:48:47.243Z,71.05
2023-01-22T14:51:14.871Z,75.53
2023-01-22T14:53:43.735Z,77.07
2023-01-22T14:56:11.197Z,76.05
2023-01-22T14:58:39.311Z,71.22
2023-01-22T15:01:17.970Z,73.22
2023-01-22T15:03:47.037Z,72.97
2023-01-22T15:06:14.825Z,73.50
2023-01-22T15:08:42.790Z,71.82
2023-01-22T15:11:10.429Z,79.05
2023-01-22T15:13:38.463Z,77.53
2023-01-22T15:16:09.541Z,78.45
2023-01-22T15:18:39.880Z,83.00
2023-01-22T15:21:08.374Z,84.13
2023-01-22T15:23:36.667Z,83.55
2023-01-22T15:26:09.964Z,73.35
2023-01-22T15:28:38.574Z,74.72
2023-01-22T15:31:08.086Z,71.10
2023-01-22T15:33:37.533Z,74.00
2023-01-22T15:36:07.117Z,80.07
2023-01-22T15:38:35.460Z,75.45
2023-01-22T15:42:09.609Z,80.95
2023-01-22T15:44:39.539Z,67.75
2023-01-22T15:47:08.366Z,75.22
2023-01-22T15:49:37.052Z,77.53
2023-01-22T15:52:05.197Z,78.05
2023-01-22T15:54:33.571Z,88.45
2023-01-22T15:57:01.758Z,76.28
2023-01-22T15:59:30.513Z,77.37
2023-01-22T16:01:58.255Z,92.45
2023-01-22T16:04:26.347Z,80.90
2023-01-22T16:06:53.994Z,85.82
2023-01-22T16:09:22.112Z,95.70
2023-01-22T16:11:57.450Z,96.40
2023-01-22T16:14:25.626Z,97.07
2023-01-22T16:16:54.627Z,92.03
2023-01-22T16:19:22.845Z,90.40
2023-01-22T16:21:52.415Z,88.63
2023-01-22T16:24:20.537Z,86.72
2023-01-22T16:26:48.138Z,82.40
2023-01-22T16:29:16.366Z,87.78
2023-01-22T16:31:44.151Z,86.15
2023-01-22T16:34:19.725Z,97.63
2023-01-22T16:36:48.868Z,88.57
2023-01-22T16:41:51.883Z,97.72
2023-01-22T16:44:27.371Z,95.30
2023-01-22T16:46:57.857Z,97.97
2023-01-22T16:49:32.491Z,94.78
2023-01-22T16:52:21.080Z,99.97
2023-01-22T16:54:51.144Z,105.38
2023-01-22T16:57:20.529Z,99.75
2023-01-22T16:59:54.686Z,108.18
2023-01-22T17:02:26.923Z,108.20
2023-01-22T17:04:57.259Z,94.60
2023-01-22T17:07:33.724Z,96.28
2023-01-22T17:10:03.124Z,102.85
2023-01-22T17:12:31.644Z,104.40
2023-01-22T17:15:00.133Z,92.53
2023-01-22T17:17:28.848Z,100.47
2023-01-22T17:19:57.116Z,106.88
2023-01-22T17:22:25.595Z,99.47
2023-01-22T17:24:55.412Z,107.07
2023-01-22T17:27:25.818Z,108.15
2023-01-22T17:29:54.035Z,113.82
2023-01-22T17:32:25.545Z,125.93
2023-01-22T17:34:56.767Z,120.68
2023-01-22T17:37:27.661Z,121.45
2023-01-22T17:40:04.443Z,124.72
2023-01-22T17:42:32.395Z,117.22
2023-01-22T17:45:00.353Z,114.10
2023-01-22T17:47:28.368Z,123.80
2023-01-22T17:49:56.352Z,126.07
2023-01-22T17:52:23.965Z,113.05
2023-01-22T17:54:53.477Z,119.65
2023-01-22T17:57:21.242Z,109.93
2023-01-22T17:59:49.512Z,119.43
2023-01-22T18:02:17.163Z,137.57
2023-01-22T18:04:46.670Z,119.05
2023-01-22T18:07:14.371Z,113.57
2023-01-22T18:09:46.595Z,105.45
2023-01-22T18:12:43.795Z,100.28
2023-01-22T18:15:15.455Z,102.85
2023-01-22T18:17:47.965Z,109.38
2023-01-22T18:20:17.489Z,105.50
2023-01-22T18:22:45.133Z,106.72
2023-01-22T18:25:13.020Z,104.93
2023-01-22T18:27:40.830Z,115.03
2023-01-22T18:30:11.807Z,104.00
2023-01-22T18:32:40.082Z,117.82
2023-01-22T18:35:08.865Z,118.00
2023-01-22T18:37:38.100Z,106.97
2023-01-22T18:40:06.957Z,106.57
2023-01-22T18:42:34.587Z,102.63
2023-01-22T18:45:04.281Z,100.85
2023-01-22T18:47:34.702Z,112.55
2023-01-22T18:50:02.557Z,126.18
2023-01-22T18:52:30.031Z,100.10
2023-01-22T18:54:58.173Z,104.25
2023-01-22T18:57:47.438Z,105.97
2023-01-22T19:00:15.618Z,106.35
2023-01-22T19:02:43.383Z,111.43
2023-01-22T19:05:11.375Z,122.55
2023-01-22T19:07:39.029Z,100.85
2023-01-22T19:10:08.769Z,104.22
2023-01-22T19:15:04.383Z,117.10
2023-01-22T19:17:31.939Z,121.75
2023-01-22T19:20:01.492Z,110.85
2023-01-22T19:22:30.143Z,122.65
2023-01-22T19:24:58.115Z,121.50
2023-01-22T19:27:25.703Z,121.20
2023-01-22T19:29:54.119Z,104.53
2023-01-22T19:32:27.821Z,100.65
2023-01-22T19:34:56.452Z,115.40
2023-01-22T19:37:25.255Z,97.22
2023-01-22T19:39:53.375Z,114.95
2023-01-22T19:42:20.946Z,104.45
2023-01-22T19:44:48.801Z,95.85
2023-01-22T19:47:17.595Z,92.75
2023-01-22T19:49:45.722Z,96.95
2023-01-22T19:52:16.476Z,85.13
2023-01-22T19:54:47.955Z,86.88
2023-01-22T19:57:15.920Z,83.97
2023-01-22T19:59:43.991Z,85.70
2023-01-22T20:02:15.216Z,85.32
2023-01-22T20:04:43.340Z,78.85
2023-01-22T20:07:11.162Z,79.88
2023-01-22T20:09:39.063Z,75.32
2023-01-22T20:12:08.757Z,81.80
2023-01-22T20:14:41.370Z,94.78
2023-01-22T20:17:09.514Z,79.43
2023-01-22T20:19:39.465Z,73.63
2023-01-22T20:22:07.346Z,91.23
2023-01-22T20:24:37.538Z,86.78
2023-01-22T20:27:05.043Z,84.68
2023-01-22T20:29:33.013Z,74.40
2023-01-22T20:32:00.790Z,87.72
2023-01-22T20:34:28.767Z,70.57
2023-01-22T20:36:57.053Z,80.95
2023-01-22T20:39:25.426Z,74.20
2023-01-22T20:41:54.858Z,126.70
2023-01-22T20:44:23.173Z,80.13
2023-01-22T20:46:51.601Z,105.55
2023-01-22T20:49:39.731Z,86.75
2023-01-22T20:52:07.758Z,92.82
2023-01-22T20:54:42.810Z,92.38
2023-01-22T20:57:19.712Z,102.32
2023-01-22T20:59:48.039Z,71.95
2023-01-22T21:02:18.113Z,63.33
2023-01-22T21:04:50.835Z,96.63
2023-01-22T21:07:20.470Z,66.03
2023-01-22T21:09:50.062Z,66.13
2023-01-22T21:12:17.815Z,110.78
2023-01-22T21:14:46.298Z,93.30
2023-01-22T21:17:13.940Z,90.20
2023-01-22T21:19:44.169Z,111.47
2023-01-22T21:22:11.944Z,136.20
2023-01-22T21:24:40.036Z,77.25
2023-01-22T21:27:07.610Z,65.68
2023-01-22T21:29:35.779Z,99.80
2023-01-22T21:32:03.624Z,88.28
2023-01-22T21:34:33.496Z,76.20
2023-01-22T21:39:30.755Z,70.85
2023-01-22T21:42:18.108Z,101.00
2023-01-22T21:45:05.286Z,103.78
2023-01-22T21:47:33.165Z,79.50
2023-01-22T21:50:01.055Z,100.45
2023-01-22T21:52:28.923Z,75.07
2023-01-22T21:54:57.044Z,85.53
2023-01-22T21:57:45.377Z,80.13
2023-01-22T22:00:25.267Z,74.43
2023-01-22T22:03:07.454Z,76.13
2023-01-22T22:06:13.713Z,101.35
2023-01-22T22:08:43.646Z,183.00
2023-01-22T22:11:14.164Z,83.38
2023-01-22T22:13:45.799Z,149.52
2023-01-22T22:16:20.582Z,110.55
2023-01-22T22:18:48.895Z,97.68
2023-01-22T22:21:39.969Z,133.05
2023-01-22T22:24:10.792Z,105.88
2023-01-22T22:26:41.929Z,77.82
2023-01-22T22:29:10.800Z,108.22
2023-01-22T22:31:40.447Z,97.05
2023-01-22T22:36:36.263Z,68.90
2023-01-22T22:39:07.779Z,74.80
2023-01-22T22:41:40.058Z,82.30
2023-01-22T22:44:13.787Z,61.30
2023-01-22T22:46:48.498Z,97.95
2023-01-22T22:49:17.055Z,72.13
2023-01-22T22:51:46.432Z,98.50
2023-01-22T22:54:18.850Z,78.05
2023-01-22T22:56:48.740Z,61.58
2023-01-22T22:59:19.742Z,61.38
2023-01-22T23:01:49.703Z,63.67
2023-01-22T23:04:17.638Z,65.90
2023-01-22T23:06:46.755Z,68.18
2023-01-22T23:09:20.757Z,63.03
2023-01-22T23:11:52.049Z,63.70
2023-01-22T23:14:19.958Z,65.82
2023-01-22T23:16:48.482Z,72.85
2023-01-22T23:19:20.519Z,73.32
2023-01-22T23:21:56.210Z,71.28
2023-01-22T23:24:24.098Z,70.85
2023-01-22T23:26:52.682Z,108.15
2023-01-22T23:29:24.192Z,96.10
2023-01-22T23:31:53.028Z,57.63
2023-01-22T23:34:22.783Z,76.27
2023-01-22T23:36:51.680Z,112.45
2023-01-22T23:39:21.465Z,104.60
2023-01-22T23:41:49.589Z,58.45
2023-01-22T23:44:17.522Z,50.13
2023-01-22T23:46:45.789Z,56.45
2023-01-22T23:49:13.720Z,53.33
2023-01-22T23:51:43.685Z,70.40
2023-01-22T23:56:39.107Z,50.78
2023-01-22T23:59:06.917Z,54.72
